Time;durP1;ratioP1;P1;durP2;ratioP2;P2;SDS_P1;SDS_P2;PMS_P1;PMS_P2;Temp;Humidity;BMP_temperature;BMP_pressure;BME280_temperature;BME280_humidity;BME280_pressure;Samples;Min_cycle;Max_cycle;Signal;HPM_P1;HPM_P2
2022/10/22 00:00:36;;;;;;;3.55;1.83;;;12.90;99.90;;;;;;4936818;29;20047;-65
2022/10/22 00:03:02;;;;;;;3.78;1.52;;;12.90;99.90;;;;;;4936752;29;20049;-65
2022/10/22 00:05:27;;;;;;;3.63;2.17;;;12.90;99.90;;;;;;4953975;29;20035;-65
2022/10/22 00:07:53;;;;;;;4.20;2.10;;;12.90;99.90;;;;;;4954208;29;20036;-65
2022/10/22 00:10:19;;;;;;;3.13;1.88;;;12.80;99.90;;;;;;4936741;29;20039;-65
2022/10/22 00:12:44;;;;;;;8.43;2.40;;;12.80;99.90;;;;;;4954183;29;20138;-65
2022/10/22 00:15:11;;;;;;;3.33;2.10;;;12.70;99.90;;;;;;4955747;28;20047;-65
2022/10/22 00:17:36;;;;;;;4.18;1.90;;;12.70;99.90;;;;;;4957547;29;20122;-65
2022/10/22 00:20:03;;;;;;;7.72;2.80;;;12.70;99.90;;;;;;4957766;29;20082;-65
2022/10/22 00:22:29;;;;;;;2.80;1.55;;;12.70;99.90;;;;;;4957465;29;20102;-65
2022/10/22 00:24:55;;;;;;;3.88;2.08;;;12.70;99.90;;;;;;4957358;29;20063;-64
2022/10/22 00:27:20;;;;;;;4.05;1.85;;;12.70;99.90;;;;;;4957711;29;20043;-65
2022/10/22 00:29:46;;;;;;;3.42;1.85;;;12.70;99.90;;;;;;4957683;29;20406;-65
2022/10/22 00:32:12;;;;;;;6.43;2.10;;;12.70;99.90;;;;;;4957562;29;20394;-65
2022/10/22 00:34:37;;;;;;;3.33;1.83;;;12.60;99.90;;;;;;4957564;29;20043;-65
2022/10/22 00:37:03;;;;;;;2.92;1.95;;;12.60;99.90;;;;;;4957462;29;20053;-65
2022/10/22 00:39:29;;;;;;;4.38;2.15;;;12.60;99.90;;;;;;4957568;29;20075;-65
2022/10/22 00:41:56;;;;;;;4.85;2.17;;;12.60;99.90;;;;;;4939828;29;20039;-65
2022/10/22 00:45:03;;;;;;;7.22;2.30;;;12.60;99.90;;;;;;4957286;29;20039;-65
2022/10/22 00:47:40;;;;;;;3.15;1.95;;;12.50;99.90;;;;;;4957363;29;20050;-64
2022/10/22 00:50:11;;;;;;;4.55;2.08;;;12.50;99.90;;;;;;4956954;29;20078;-65
2022/10/22 00:52:37;;;;;;;3.83;2.35;;;12.50;99.90;;;;;;4957233;29;20507;-65
2022/10/22 00:55:04;;;;;;;3.42;1.90;;;12.40;99.90;;;;;;4939929;29;20043;-65
2022/10/22 00:57:30;;;;;;;4.18;2.38;;;12.40;99.90;;;;;;4957127;29;20487;-65
2022/10/22 00:59:56;;;;;;;3.65;2.20;;;12.40;99.90;;;;;;4939544;29;20043;-65
2022/10/22 01:02:22;;;;;;;5.10;2.25;;;12.40;99.90;;;;;;4957011;29;20394;-64
2022/10/22 01:04:48;;;;;;;5.68;2.25;;;12.40;99.90;;;;;;4956759;29;20043;-65
2022/10/22 01:07:20;;;;;;;3.00;1.83;;;12.30;99.90;;;;;;4956659;29;20118;-65
2022/10/22 01:10:02;;;;;;;2.90;2.05;;;12.30;99.90;;;;;;4956916;29;20514;-65
2022/10/22 01:13:06;;;;;;;3.67;2.40;;;12.30;99.90;;;;;;4939579;29;20577;-65
2022/10/22 01:16:03;;;;;;;4.05;1.90;;;12.30;99.90;;;;;;4935951;29;20396;-65
2022/10/22 01:18:37;;;;;;;4.47;2.25;;;12.40;99.90;;;;;;4939252;29;20054;-65
2022/10/22 01:21:09;;;;;;;4.43;2.42;;;12.40;99.90;;;;;;4956512;28;20043;-65
2022/10/22 01:24:02;;;;;;;3.70;2.38;;;12.40;99.90;;;;;;4939168;29;20122;-65
2022/10/22 01:26:46;;;;;;;6.10;2.58;;;12.40;99.90;;;;;;4938755;29;20070;-65
2022/10/22 01:29:17;;;;;;;5.05;2.08;;;12.40;99.90;;;;;;4938874;29;20130;-65
2022/10/22 01:31:47;;;;;;;4.63;2.58;;;12.30;99.90;;;;;;4939023;29;20051;-65
2022/10/22 01:34:16;;;;;;;3.58;2.28;;;12.30;99.90;;;;;;4956447;29;20055;-65
2022/10/22 01:36:44;;;;;;;4.25;2.35;;;12.30;99.90;;;;;;4956475;29;20051;-65
2022/10/22 01:39:11;;;;;;;4.57;2.47;;;12.30;99.90;;;;;;4956371;29;20051;-65
2022/10/22 01:41:39;;;;;;;7.70;2.72;;;12.40;99.90;;;;;;4956239;29;20118;-65
2022/10/22 01:44:04;;;;;;;4.40;2.70;;;12.40;99.90;;;;;;4956370;29;20047;-65
2022/10/22 01:46:31;;;;;;;4.57;2.20;;;12.40;99.90;;;;;;4956199;29;20043;-65
2022/10/22 01:49:11;;;;;;;6.25;3.20;;;12.40;99.90;;;;;;4955822;29;20101;-65
2022/10/22 01:51:55;;;;;;;5.13;2.60;;;12.50;99.90;;;;;;4955869;29;20051;-65
2022/10/22 01:54:58;;;;;;;4.47;2.80;;;12.50;99.90;;;;;;4956049;29;20047;-65
2022/10/22 01:57:41;;;;;;;5.25;2.88;;;12.50;99.90;;;;;;4956027;29;20494;-65
2022/10/22 02:00:10;;;;;;;5.13;3.08;;;12.50;99.90;;;;;;4955969;29;20087;-65
2022/10/22 02:03:04;;;;;;;4.53;2.45;;;12.50;99.90;;;;;;4955697;29;20086;-69
2022/10/22 02:05:44;;;;;;;5.75;2.92;;;12.50;99.90;;;;;;4938602;29;20398;-69
2022/10/22 02:08:16;;;;;;;4.65;2.38;;;12.50;99.90;;;;;;4938414;29;20043;-69
2022/10/22 02:10:45;;;;;;;4.05;2.80;;;12.50;99.90;;;;;;4955492;29;20054;-69
2022/10/22 02:13:16;;;;;;;5.10;3.00;;;12.50;99.90;;;;;;4938231;29;20098;-68
2022/10/22 02:15:44;;;;;;;5.10;2.95;;;12.50;99.90;;;;;;4955792;29;20049;-69
2022/10/22 02:18:10;;;;;;;5.85;2.85;;;12.50;99.90;;;;;;4938123;29;20051;-68
2022/10/22 02:20:39;;;;;;;4.88;2.67;;;12.50;99.90;;;;;;4938138;29;20043;-69
2022/10/22 02:23:05;;;;;;;4.07;2.30;;;12.40;99.90;;;;;;4955310;29;20059;-69
2022/10/22 02:25:35;;;;;;;4.15;3.00;;;12.40;99.90;;;;;;4938449;29;20086;-69
2022/10/22 02:28:10;;;;;;;5.72;2.65;;;12.40;99.90;;;;;;4938041;29;20121;-69
2022/10/22 02:30:40;;;;;;;6.03;2.63;;;12.40;99.90;;;;;;4955196;29;20075;-69
2022/10/22 02:33:20;;;;;;;5.72;3.00;;;12.40;99.90;;;;;;4955330;29;20061;-69
2022/10/22 02:35:47;;;;;;;4.20;2.63;;;12.40;99.90;;;;;;4938048;29;20054;-70
2022/10/22 02:38:13;;;;;;;5.78;3.05;;;12.40;99.90;;;;;;4954462;28;20047;-69
2022/10/22 02:40:39;;;;;;;6.65;3.35;;;12.50;99.90;;;;;;4937782;29;20078;-69
2022/10/22 02:43:05;;;;;;;10.90;3.38;;;12.50;99.90;;;;;;4955138;29;20047;-69
2022/10/22 02:45:32;;;;;;;5.57;2.60;;;12.50;99.90;;;;;;4937913;29;20874;-69
2022/10/22 02:47:58;;;;;;;6.63;3.10;;;12.50;99.90;;;;;;4937836;29;20035;-69
2022/10/22 02:50:24;;;;;;;4.53;3.05;;;12.50;99.90;;;;;;4955392;29;20046;-69
2022/10/22 02:52:49;;;;;;;4.68;2.97;;;12.60;99.90;;;;;;4954823;29;20430;-68
2022/10/22 02:55:15;;;;;;;4.20;2.63;;;12.60;99.90;;;;;;4954926;29;20062;-69
2022/10/22 02:57:41;;;;;;;7.65;3.50;;;12.60;99.90;;;;;;4954724;29;20758;-69
2022/10/22 03:00:08;;;;;;;4.93;2.97;;;12.60;99.90;;;;;;4954923;29;20458;-69
2022/10/22 03:02:33;;;;;;;8.20;3.22;;;12.50;99.90;;;;;;4921474;29;20079;-69
2022/10/22 03:05:00;;;;;;;4.47;2.63;;;12.50;99.90;;;;;;4954526;29;20075;-69
2022/10/22 03:07:25;;;;;;;8.60;2.88;;;12.50;99.90;;;;;;4937595;29;20039;-69
2022/10/22 03:09:51;;;;;;;4.85;3.10;;;12.50;99.90;;;;;;4937274;29;20109;-69
2022/10/22 03:12:17;;;;;;;6.00;3.20;;;12.50;99.90;;;;;;4954478;29;20491;-69
2022/10/22 03:14:42;;;;;;;7.15;2.83;;;12.40;99.90;;;;;;4954711;29;20053;-69
2022/10/22 03:17:08;;;;;;;3.28;2.53;;;12.40;99.90;;;;;;4954622;29;20039;-69
2022/10/22 03:19:34;;;;;;;4.78;2.70;;;12.40;99.90;;;;;;4954674;29;20626;-69
2022/10/22 03:22:23;;;;;;;6.53;2.90;;;12.40;99.90;;;;;;4954579;29;20048;-69
2022/10/22 03:24:53;;;;;;;4.93;3.13;;;12.30;99.90;;;;;;4936969;29;20059;-69
2022/10/22 03:27:21;;;;;;;6.75;3.15;;;12.30;99.90;;;;;;4954257;29;20043;-69
2022/10/22 03:29:49;;;;;;;7.68;3.30;;;12.30;99.90;;;;;;4954299;29;20101;-69
2022/10/22 03:32:15;;;;;;;6.30;3.30;;;12.40;99.90;;;;;;4937205;29;20059;-69
2022/10/22 03:34:41;;;;;;;4.47;2.90;;;12.30;99.90;;;;;;4937155;29;20118;-69
2022/10/22 03:37:06;;;;;;;5.68;3.20;;;12.40;99.90;;;;;;4954524;29;20141;-69
2022/10/22 03:39:34;;;;;;;4.55;2.92;;;12.40;99.90;;;;;;4937276;29;20043;-69
2022/10/22 03:42:00;;;;;;;5.70;3.53;;;12.40;99.90;;;;;;4954113;29;20114;-69
2022/10/22 03:44:27;;;;;;;4.72;3.38;;;12.40;99.90;;;;;;4936993;29;20051;-68
2022/10/22 03:46:52;;;;;;;4.78;3.30;;;12.40;99.90;;;;;;4954444;29;20127;-69
2022/10/22 03:49:18;;;;;;;4.95;3.28;;;12.50;99.90;;;;;;4937554;29;20463;-69
2022/10/22 03:51:44;;;;;;;8.02;4.05;;;12.50;99.90;;;;;;4958290;29;20050;-70
2022/10/22 03:54:10;;;;;;;5.93;3.80;;;12.50;99.90;;;;;;4958279;29;20098;-69
2022/10/22 03:56:35;;;;;;;6.18;3.78;;;12.50;99.90;;;;;;4957895;29;20043;-70
2022/10/22 03:59:01;;;;;;;5.80;2.92;;;12.50;99.90;;;;;;4958182;29;20490;-70
2022/10/22 04:01:29;;;;;;;4.80;3.33;;;12.50;99.90;;;;;;4941028;29;20106;-69
2022/10/22 04:03:55;;;;;;;5.07;3.50;;;12.50;99.90;;;;;;4958111;29;20047;-70
2022/10/22 04:06:21;;;;;;;6.43;3.83;;;12.50;99.90;;;;;;4957691;29;20035;-69
2022/10/22 04:08:46;;;;;;;4.95;3.03;;;12.50;99.90;;;;;;4958059;29;20046;-70
2022/10/22 04:11:13;;;;;;;5.72;3.28;;;12.50;99.90;;;;;;4940804;29;20110;-69
2022/10/22 04:13:39;;;;;;;5.85;3.35;;;12.50;99.90;;;;;;4940448;29;20058;-69
2022/10/22 04:16:16;;;;;;;9.85;3.70;;;12.40;99.90;;;;;;4957850;29;20047;-69
2022/10/22 04:18:44;;;;;;;9.23;4.18;;;12.40;99.90;;;;;;4957887;29;20035;-69
2022/10/22 04:21:11;;;;;;;4.95;3.20;;;12.40;99.90;;;;;;4957722;29;20035;-69
2022/10/22 04:23:37;;;;;;;5.57;3.58;;;12.40;99.90;;;;;;4957475;29;20063;-69
2022/10/22 04:26:05;;;;;;;5.18;3.83;;;12.40;99.90;;;;;;4957733;29;20051;-69
2022/10/22 04:28:31;;;;;;;6.82;5.32;;;12.40;99.90;;;;;;4940406;29;20479;-69
2022/10/22 04:30:57;;;;;;;11.00;4.03;;;12.40;99.90;;;;;;4940406;29;20558;-69
2022/10/22 04:33:23;;;;;;;5.88;4.00;;;12.40;99.90;;;;;;4957330;29;20131;-69
2022/10/22 04:35:49;;;;;;;5.82;3.63;;;12.30;99.90;;;;;;4940341;29;20077;-69
2022/10/22 04:38:15;;;;;;;5.18;3.63;;;12.30;99.90;;;;;;4957375;29;20051;-70
2022/10/22 04:40:41;;;;;;;10.75;4.13;;;12.30;99.90;;;;;;4957141;29;20126;-69
2022/10/22 04:43:07;;;;;;;6.35;3.58;;;12.30;99.90;;;;;;4957076;29;20095;-69
2022/10/22 04:45:33;;;;;;;10.88;3.75;;;12.30;99.90;;;;;;4939948;29;20462;-69
2022/10/22 04:47:59;;;;;;;6.20;3.63;;;12.30;99.90;;;;;;4957300;29;20043;-69
2022/10/22 04:50:25;;;;;;;5.97;3.45;;;12.30;99.90;;;;;;4923957;29;20516;-69
2022/10/22 04:52:51;;;;;;;7.07;3.40;;;12.30;99.90;;;;;;4957199;29;20051;-69
2022/10/22 04:55:16;;;;;;;4.95;3.40;;;12.50;99.90;;;;;;4923862;29;20495;-69
2022/10/22 04:57:42;;;;;;;6.32;3.50;;;12.40;99.90;;;;;;4957148;29;20047;-69
2022/10/22 05:00:08;;;;;;;4.53;2.95;;;12.30;99.90;;;;;;4939495;29;20074;-68
2022/10/22 05:02:34;;;;;;;7.53;3.67;;;12.30;99.90;;;;;;4956749;29;20101;-69
2022/10/22 05:05:00;;;;;;;10.30;3.92;;;12.30;99.90;;;;;;4957058;29;20477;-69
2022/10/22 05:07:26;;;;;;;6.90;3.65;;;12.30;99.90;;;;;;4939552;29;20134;-70
2022/10/22 05:09:52;;;;;;;7.05;3.47;;;12.30;99.90;;;;;;4956884;29;20087;-68
2022/10/22 05:12:18;;;;;;;6.20;3.60;;;12.30;99.90;;;;;;4939439;29;20054;-69
2022/10/22 05:14:44;;;;;;;6.82;2.80;;;12.30;99.90;;;;;;4939355;29;20419;-69
2022/10/22 05:17:09;;;;;;;8.60;3.45;;;12.30;99.90;;;;;;4939333;29;20407;-69
2022/10/22 05:19:35;;;;;;;6.93;3.55;;;12.30;99.90;;;;;;4956752;29;20094;-69
2022/10/22 05:22:02;;;;;;;5.93;3.50;;;12.30;99.90;;;;;;4956580;29;20550;-69
2022/10/22 05:24:30;;;;;;;5.15;3.42;;;12.30;99.90;;;;;;4939233;29;20047;-69
2022/10/22 05:26:57;;;;;;;5.38;3.40;;;12.20;99.90;;;;;;4939185;29;20071;-69
2022/10/22 05:29:24;;;;;;;5.43;2.60;;;12.20;99.90;;;;;;4956274;29;20041;-68
2022/10/22 05:31:50;;;;;;;5.93;3.72;;;12.30;99.90;;;;;;4956539;29;20094;-69
2022/10/22 05:34:16;;;;;;;6.13;3.00;;;12.20;99.90;;;;;;4956218;29;20035;-69
2022/10/22 05:36:42;;;;;;;8.15;3.63;;;12.20;99.90;;;;;;4939305;29;20051;-69
2022/10/22 05:39:08;;;;;;;6.90;3.42;;;12.30;99.90;;;;;;4938999;29;20118;-69
2022/10/22 05:41:34;;;;;;;6.30;3.60;;;12.20;99.90;;;;;;4938807;29;20126;-68
2022/10/22 05:44:01;;;;;;;6.22;2.72;;;12.20;99.90;;;;;;4956122;29;20039;-68
2022/10/22 05:46:33;;;;;;;6.22;3.42;;;12.20;99.90;;;;;;4955999;29;20090;-68
2022/10/22 05:49:01;;;;;;;9.50;3.55;;;12.20;99.90;;;;;;4938686;29;20041;-69
2022/10/22 05:51:30;;;;;;;11.63;3.70;;;12.30;99.90;;;;;;4939072;29;20082;-69
2022/10/22 05:54:01;;;;;;;5.35;3.42;;;12.30;99.90;;;;;;4938963;29;20051;-69
2022/10/22 05:56:28;;;;;;;5.25;3.20;;;12.30;99.90;;;;;;4955869;29;20499;-68
2022/10/22 05:58:55;;;;;;;4.43;3.40;;;12.30;99.90;;;;;;4955845;29;20047;-70
2022/10/22 06:01:26;;;;;;;7.05;3.25;;;12.30;99.90;;;;;;4955986;29;20043;-69
2022/10/22 06:03:57;;;;;;;5.25;3.30;;;12.20;99.90;;;;;;4956012;29;20078;-69
2022/10/22 06:06:32;;;;;;;5.70;2.97;;;12.40;99.90;;;;;;4926752;29;20039;-71
2022/10/22 06:09:15;;;;;;;4.82;2.90;;;12.40;99.90;;;;;;4955668;29;20039;-71
2022/10/22 06:11:41;;;;;;;6.05;3.00;;;12.40;99.90;;;;;;4937869;29;20047;-67
2022/10/22 06:14:09;;;;;;;6.63;3.40;;;12.40;99.90;;;;;;4938380;29;20046;-68
2022/10/22 06:16:34;;;;;;;6.93;3.78;;;12.40;99.90;;;;;;4955717;29;20079;-68
2022/10/22 06:19:01;;;;;;;5.40;3.15;;;12.40;99.90;;;;;;4955733;29;20464;-68
2022/10/22 06:21:27;;;;;;;8.10;2.92;;;12.40;99.90;;;;;;4938373;29;20054;-68
2022/10/22 06:23:56;;;;;;;5.95;3.17;;;12.50;99.90;;;;;;4955263;29;20055;-68
2022/10/22 06:26:21;;;;;;;4.63;3.03;;;12.50;99.90;;;;;;4955286;29;20043;-68
2022/10/22 06:28:47;;;;;;;6.78;3.63;;;12.60;99.90;;;;;;4938356;29;20039;-68
2022/10/22 06:31:13;;;;;;;4.88;3.20;;;12.50;99.90;;;;;;4955176;29;20054;-68
2022/10/22 06:33:42;;;;;;;9.50;3.65;;;12.60;99.90;;;;;;4955427;29;20074;-68
2022/10/22 06:36:13;;;;;;;5.07;2.58;;;12.60;99.90;;;;;;4955156;29;20046;-70
2022/10/22 06:38:39;;;;;;;6.35;3.03;;;12.60;99.90;;;;;;4938088;29;20047;-70
2022/10/22 06:41:07;;;;;;;4.80;3.10;;;12.60;99.90;;;;;;4955230;29;20510;-70
2022/10/22 06:43:33;;;;;;;7.70;3.10;;;12.60;99.90;;;;;;4954940;29;20035;-70
2022/10/22 06:46:06;;;;;;;5.55;3.03;;;12.70;99.90;;;;;;4937657;29;20051;-70
2022/10/22 06:48:32;;;;;;;4.00;2.78;;;12.70;99.90;;;;;;4955016;29;20591;-71
2022/10/22 06:51:03;;;;;;;5.03;2.85;;;12.70;99.90;;;;;;4955031;29;20075;-71
2022/10/22 06:53:29;;;;;;;4.03;2.53;;;12.70;99.90;;;;;;4954870;29;20047;-70
2022/10/22 06:55:55;;;;;;;4.85;2.78;;;12.80;99.90;;;;;;4954877;29;20119;-72
2022/10/22 06:58:20;;;;;;;7.05;3.40;;;12.80;99.90;;;;;;4921575;29;20090;-71
2022/10/22 07:00:46;;;;;;;4.72;2.63;;;12.80;99.90;;;;;;4921660;29;20374;-69
2022/10/22 07:03:13;;;;;;;5.75;3.10;;;12.90;99.90;;;;;;4954473;29;20559;-70
2022/10/22 07:05:39;;;;;;;4.07;2.58;;;12.90;99.90;;;;;;4937313;29;20039;-71
2022/10/22 07:08:05;;;;;;;6.18;2.65;;;13.00;99.90;;;;;;4954476;29;20443;-71
2022/10/22 07:10:31;;;;;;;5.88;2.83;;;13.00;99.90;;;;;;4954619;29;20166;-71
2022/10/22 07:12:57;;;;;;;4.88;2.92;;;13.10;99.90;;;;;;4954511;29;20085;-71
2022/10/22 07:15:22;;;;;;;3.58;2.42;;;13.20;99.90;;;;;;4954305;29;20102;-68
2022/10/22 07:17:50;;;;;;;5.00;2.92;;;13.20;99.90;;;;;;4954470;29;20047;-72
2022/10/22 07:20:17;;;;;;;4.43;2.67;;;13.20;99.90;;;;;;4954817;29;20055;-70
2022/10/22 07:22:44;;;;;;;5.18;3.20;;;13.20;99.90;;;;;;4937096;29;20051;-71
2022/10/22 07:25:10;;;;;;;7.32;2.63;;;13.20;99.90;;;;;;4954287;28;20070;-71
2022/10/22 07:27:35;;;;;;;6.10;2.85;;;13.20;99.90;;;;;;4954401;29;20046;-70
2022/10/22 07:30:01;;;;;;;6.03;3.10;;;13.20;99.90;;;;;;4954326;29;20047;-70
2022/10/22 07:32:27;;;;;;;4.47;2.78;;;13.30;99.90;;;;;;4921106;29;20058;-69
2022/10/22 07:34:53;;;;;;;4.20;2.38;;;13.30;99.90;;;;;;4954027;29;20062;-69
2022/10/22 07:37:20;;;;;;;8.75;2.67;;;13.30;99.90;;;;;;4953996;29;20043;-70
2022/10/22 07:39:47;;;;;;;8.73;3.08;;;13.30;99.90;;;;;;4954009;29;20055;-71
2022/10/22 07:42:13;;;;;;;4.35;3.10;;;13.30;99.90;;;;;;4953868;29;20043;-70
2022/10/22 07:44:39;;;;;;;4.00;2.60;;;13.40;99.90;;;;;;4937017;29;20559;-69
2022/10/22 07:47:05;;;;;;;3.50;2.35;;;13.40;99.90;;;;;;4937009;29;20191;-70
2022/10/22 07:49:30;;;;;;;4.85;2.38;;;13.50;99.90;;;;;;4936802;29;20035;-70
2022/10/22 07:51:56;;;;;;;7.10;2.45;;;13.50;99.90;;;;;;4954175;29;20047;-69
2022/10/22 07:54:22;;;;;;;5.00;2.50;;;13.60;99.90;;;;;;4954157;29;20094;-72
2022/10/22 07:56:48;;;;;;;2.42;1.88;;;13.50;99.90;;;;;;4954165;29;20098;-71
2022/10/22 07:59:14;;;;;;;6.15;2.35;;;13.60;99.90;;;;;;4953893;29;20043;-70
2022/10/22 08:01:39;;;;;;;8.70;2.55;;;13.60;99.90;;;;;;4953727;29;20049;-70
2022/10/22 08:04:07;;;;;;;5.10;2.47;;;13.60;99.90;;;;;;4954193;29;20114;-70
2022/10/22 08:06:33;;;;;;;4.82;2.30;;;13.70;99.90;;;;;;4954178;29;20502;-69
2022/10/22 08:08:59;;;;;;;6.53;2.05;;;13.70;99.90;;;;;;4953956;29;20039;-72
2022/10/22 08:11:25;;;;;;;7.30;2.33;;;13.70;99.90;;;;;;4953828;29;20039;-71
2022/10/22 08:13:52;;;;;;;5.60;1.85;;;13.70;99.90;;;;;;4936865;29;20043;-70
2022/10/22 08:16:18;;;;;;;4.93;2.10;;;13.70;99.90;;;;;;4954152;29;20530;-70
2022/10/22 08:18:44;;;;;;;4.22;2.00;;;13.70;99.90;;;;;;4954112;29;20424;-69
2022/10/22 08:21:11;;;;;;;5.07;1.83;;;13.80;99.90;;;;;;4936645;29;20046;-69
2022/10/22 08:23:38;;;;;;;4.15;2.40;;;13.80;99.90;;;;;;4953847;28;20059;-70
2022/10/22 08:26:04;;;;;;;4.10;2.65;;;13.80;99.90;;;;;;4953847;29;20486;-73
2022/10/22 08:28:34;;;;;;;5.82;2.50;;;13.80;99.90;;;;;;4936508;29;20054;-69
2022/10/22 08:31:00;;;;;;;4.47;2.77;;;13.80;99.90;;;;;;4953697;29;20039;-67
2022/10/22 08:33:26;;;;;;;5.90;2.30;;;13.80;99.90;;;;;;4953667;29;20298;-70
2022/10/22 08:35:52;;;;;;;4.47;2.33;;;13.80;99.90;;;;;;4955416;28;20483;-67
2022/10/22 08:38:19;;;;;;;3.65;2.25;;;13.90;99.90;;;;;;4957097;29;20054;-69
2022/10/22 08:40:50;;;;;;;7.50;2.05;;;13.90;99.90;;;;;;4939889;29;20057;-68
2022/10/22 08:43:42;;;;;;;7.82;2.28;;;13.90;99.90;;;;;;4957301;29;20043;-67
2022/10/22 08:46:45;;;;;;;3.88;2.20;;;14.00;99.90;;;;;;4957060;29;20091;-68
2022/10/22 08:49:34;;;;;;;3.83;2.20;;;14.10;99.90;;;;;;4923964;29;20051;-67
2022/10/22 08:52:00;;;;;;;4.25;1.67;;;14.20;99.90;;;;;;4957243;29;20046;-70
2022/10/22 08:54:46;;;;;;;4.80;2.42;;;14.20;99.90;;;;;;4939690;29;20097;-71
2022/10/22 08:57:20;;;;;;;6.15;2.00;;;14.30;99.90;;;;;;4939664;29;20051;-70
2022/10/22 08:59:58;;;;;;;4.93;2.05;;;14.40;99.90;;;;;;4939565;29;20130;-70
2022/10/22 09:02:46;;;;;;;6.13;1.98;;;14.40;99.90;;;;;;4956627;29;20122;-70
2022/10/22 09:05:34;;;;;;;6.05;2.30;;;14.50;99.90;;;;;;4939369;29;20050;-69
2022/10/22 09:07:59;;;;;;;5.00;1.95;;;14.50;99.90;;;;;;4956903;29;20039;-70
2022/10/22 09:10:32;;;;;;;10.93;1.80;;;14.60;99.90;;;;;;4956887;29;20390;-68
2022/10/22 09:12:57;;;;;;;4.82;2.00;;;14.60;99.90;;;;;;4939716;29;20050;-71
2022/10/22 09:15:23;;;;;;;2.53;1.75;;;14.60;99.90;;;;;;4939247;29;20481;-70
2022/10/22 09:18:01;;;;;;;7.45;1.85;;;14.70;99.90;;;;;;4939236;29;20098;-70
2022/10/22 09:20:52;;;;;;;3.25;1.85;;;14.70;99.90;;;;;;4956389;29;20051;-70
2022/10/22 09:23:38;;;;;;;8.50;2.08;;;14.70;99.90;;;;;;4956075;29;20055;-68
2022/10/22 09:26:12;;;;;;;3.53;1.70;;;14.70;99.90;;;;;;4956621;29;20487;-67
2022/10/22 09:28:38;;;;;;;5.15;1.90;;;14.80;99.90;;;;;;4956613;29;20098;-68
2022/10/22 09:31:14;;;;;;;6.63;2.13;;;14.90;99.90;;;;;;4956178;29;20122;-68
2022/10/22 09:33:42;;;;;;;4.47;1.73;;;14.90;99.90;;;;;;4938964;29;20046;-67
2022/10/22 09:36:16;;;;;;;3.67;1.50;;;15.00;99.90;;;;;;4938942;29;20047;-66
2022/10/22 09:38:48;;;;;;;4.25;1.63;;;15.10;99.90;;;;;;4956397;29;20091;-68
2022/10/22 09:41:16;;;;;;;3.22;1.85;;;15.20;99.90;;;;;;4938753;29;20047;-69
2022/10/22 09:43:41;;;;;;;4.22;1.95;;;15.40;99.90;;;;;;4956051;29;20051;-70
2022/10/22 09:46:19;;;;;;;4.20;2.15;;;15.50;99.90;;;;;;4938784;28;20426;-68
2022/10/22 09:49:01;;;;;;;2.40;1.60;;;15.50;99.90;;;;;;4955331;29;20089;-70
2022/10/22 09:51:52;;;;;;;3.05;1.83;;;15.60;99.90;;;;;;4956160;29;20035;-71
2022/10/22 09:54:25;;;;;;;8.00;1.85;;;15.60;99.90;;;;;;4928341;29;20055;-71
2022/10/22 09:57:05;;;;;;;3.85;1.52;;;15.60;99.90;;;;;;4938558;29;20039;-71
2022/10/22 09:59:35;;;;;;;3.50;1.35;;;15.70;99.90;;;;;;4938597;29;20035;-72
2022/10/22 10:02:19;;;;;;;4.63;1.30;;;15.70;99.90;;;;;;4955706;29;20485;-70
2022/10/22 10:04:54;;;;;;;4.60;1.40;;;15.70;99.90;;;;;;4938468;29;20074;-71
2022/10/22 10:07:31;;;;;;;5.30;1.40;;;15.70;99.90;;;;;;4922718;29;20043;-71
2022/10/22 10:09:56;;;;;;;4.85;1.63;;;15.70;99.90;;;;;;4938682;29;20043;-69
2022/10/22 10:12:44;;;;;;;3.10;1.20;;;15.70;99.90;;;;;;4938311;29;20106;-70
2022/10/22 10:15:39;;;;;;;4.88;1.50;;;15.60;99.90;;;;;;4955759;29;20035;-71
2022/10/22 10:18:07;;;;;;;5.00;1.40;;;15.70;99.90;;;;;;4938469;29;20417;-71
2022/10/22 10:20:58;;;;;;;4.00;1.48;;;15.60;99.90;;;;;;4955632;29;20039;-70
2022/10/22 10:23:36;;;;;;;3.70;1.38;;;15.60;99.90;;;;;;4937739;29;20103;-70
2022/10/22 10:26:31;;;;;;;4.97;2.47;;;15.60;99.90;;;;;;4955115;29;20039;-69
2022/10/22 10:29:09;;;;;;;3.40;1.67;;;15.70;99.90;;;;;;4955386;29;20037;-69
2022/10/22 10:31:48;;;;;;;3.58;1.60;;;15.70;99.90;;;;;;4922058;29;20106;-71
2022/10/22 10:34:40;;;;;;;4.00;1.42;;;15.70;99.90;;;;;;4938141;29;20483;-71
2022/10/22 10:37:21;;;;;;;2.15;1.42;;;15.80;99.90;;;;;;4921834;29;20050;-72
2022/10/22 10:40:00;;;;;;;3.78;1.52;;;15.80;99.90;;;;;;4937952;29;20054;-70
2022/10/22 10:42:43;;;;;;;3.33;1.90;;;15.80;99.90;;;;;;4955119;29;20129;-71
2022/10/22 10:45:17;;;;;;;3.13;1.60;;;15.80;99.90;;;;;;4954801;29;20047;-71
2022/10/22 10:48:02;;;;;;;6.15;1.75;;;15.80;99.90;;;;;;4955092;29;20418;-70
2022/10/22 10:50:36;;;;;;;3.97;1.73;;;15.80;99.90;;;;;;4937884;29;20043;-69
2022/10/22 10:53:29;;;;;;;5.32;1.88;;;15.90;99.90;;;;;;4955045;29;20059;-70
2022/10/22 10:56:14;;;;;;;9.02;4.97;;;16.00;99.90;;;;;;4940896;29;20054;-69
2022/10/22 10:58:53;;;;;;;4.85;2.85;;;16.00;99.90;;;;;;4954647;28;20046;-71
2022/10/22 11:01:58;;;;;;;5.25;2.28;;;16.00;99.90;;;;;;4954530;29;20125;-69
2022/10/22 11:04:53;;;;;;;7.13;1.98;;;16.00;99.90;;;;;;4937925;29;20559;-71
2022/10/22 11:07:30;;;;;;;5.85;1.98;;;16.00;99.90;;;;;;4935339;29;20047;-72
2022/10/22 11:10:06;;;;;;;3.03;1.90;;;16.00;99.90;;;;;;4937570;29;20510;-70
2022/10/22 11:12:43;;;;;;;2.80;1.48;;;16.00;99.90;;;;;;4937206;29;20055;-69
2022/10/22 11:15:24;;;;;;;3.72;1.50;;;15.90;99.90;;;;;;4954385;29;20061;-70
2022/10/22 11:17:53;;;;;;;2.17;1.58;;;15.90;99.90;;;;;;4937230;29;20043;-70
2022/10/22 11:20:47;;;;;;;5.05;2.03;;;15.90;99.90;;;;;;4937768;29;20047;-71
2022/10/22 11:23:18;;;;;;;4.05;1.45;;;15.80;99.90;;;;;;4953753;29;20475;-70
2022/10/22 11:25:47;;;;;;;3.45;2.00;;;15.80;99.90;;;;;;4937535;29;20051;-71
2022/10/22 11:28:25;;;;;;;2.20;1.50;;;16.10;99.90;;;;;;4937387;29;20058;-70
2022/10/22 11:31:02;;;;;;;2.83;1.65;;;15.80;99.90;;;;;;4954447;29;20043;-70
2022/10/22 11:33:38;;;;;;;3.67;1.77;;;15.80;99.90;;;;;;4954437;29;20455;-70
2022/10/22 11:36:07;;;;;;;4.40;1.80;;;15.70;99.90;;;;;;4936884;29;20047;-70
2022/10/22 11:38:34;;;;;;;5.65;1.70;;;15.90;99.90;;;;;;4936876;29;20109;-71
2022/10/22 11:41:16;;;;;;;9.57;2.35;;;15.90;99.90;;;;;;4954407;29;20098;-71
2022/10/22 11:43:56;;;;;;;5.85;1.98;;;15.90;99.90;;;;;;4936809;29;20047;-70
2022/10/22 11:46:22;;;;;;;3.75;1.98;;;15.90;99.90;;;;;;4953970;29;20046;-70
2022/10/22 11:49:13;;;;;;;4.63;1.80;;;15.90;99.90;;;;;;4936741;29;20039;-69
2022/10/22 11:51:41;;;;;;;6.47;1.92;;;15.80;99.90;;;;;;4945012;29;20117;-69
2022/10/22 11:54:28;;;;;;;3.85;1.65;;;15.90;99.90;;;;;;4953931;29;20054;-70
2022/10/22 11:57:14;;;;;;;5.30;1.65;;;15.90;99.90;;;;;;4954247;29;20039;-71
2022/10/22 11:59:57;;;;;;;3.95;2.10;;;15.90;99.90;;;;;;4936682;29;20043;-71
2022/10/22 12:02:45;;;;;;;6.20;1.98;;;16.00;99.90;;;;;;4953834;29;20054;-71
2022/10/22 12:05:23;;;;;;;4.47;2.05;;;16.20;99.90;;;;;;4921129;29;20043;-71
2022/10/22 12:07:49;;;;;;;3.33;1.75;;;16.30;99.90;;;;;;4953923;29;20054;-72
2022/10/22 12:10:26;;;;;;;2.90;1.98;;;16.40;99.90;;;;;;4954437;28;20503;-72
2022/10/22 12:13:03;;;;;;;2.35;1.83;;;16.30;99.90;;;;;;4958038;29;20055;-72
2022/10/22 12:15:29;;;;;;;3.42;1.67;;;16.50;99.90;;;;;;4957550;29;20097;-72
2022/10/22 12:18:04;;;;;;;3.03;2.10;;;16.50;99.90;;;;;;4957366;29;20051;-72
2022/10/22 12:20:30;;;;;;;3.47;1.73;;;16.40;99.90;;;;;;4940252;29;20109;-71
2022/10/22 12:22:57;;;;;;;5.07;2.17;;;16.40;99.90;;;;;;4940051;28;20058;-73
2022/10/22 12:25:28;;;;;;;6.07;2.13;;;16.40;99.90;;;;;;4940204;29;20132;-72
2022/10/22 12:27:58;;;;;;;5.15;2.30;;;16.30;99.90;;;;;;4940423;29;20075;-71
2022/10/22 12:30:27;;;;;;;3.47;2.25;;;16.20;99.90;;;;;;4957606;29;20039;-72
2022/10/22 12:32:55;;;;;;;4.20;1.98;;;16.10;99.90;;;;;;4957168;29;20129;-71
2022/10/22 12:35:24;;;;;;;3.28;1.90;;;16.10;99.90;;;;;;4957492;29;20039;-71
2022/10/22 12:37:51;;;;;;;2.95;1.75;;;16.00;99.90;;;;;;4957108;29;20078;-71
2022/10/22 12:40:29;;;;;;;3.33;2.28;;;15.90;99.90;;;;;;4940254;29;20047;-72
2022/10/22 12:42:57;;;;;;;6.72;2.35;;;15.90;99.90;;;;;;4940002;29;20148;-72
2022/10/22 12:45:27;;;;;;;4.32;1.88;;;15.90;99.90;;;;;;4957341;29;20102;-72
2022/10/22 12:47:59;;;;;;;2.30;1.80;;;15.80;99.90;;;;;;4957319;29;20046;-72
2022/10/22 12:50:36;;;;;;;4.00;2.00;;;15.80;99.90;;;;;;4957166;29;20090;-73
2022/10/22 12:53:03;;;;;;;3.40;1.95;;;15.80;99.90;;;;;;4939724;29;20153;-71
2022/10/22 12:55:32;;;;;;;6.13;2.38;;;15.80;99.90;;;;;;4939717;29;20070;-71
2022/10/22 12:57:58;;;;;;;5.03;2.13;;;15.70;99.90;;;;;;4939722;29;20052;-72
2022/10/22 13:00:31;;;;;;;6.15;2.40;;;15.70;99.90;;;;;;4939570;29;20138;-72
2022/10/22 13:03:01;;;;;;;3.33;1.95;;;15.70;99.90;;;;;;4939613;29;20051;-71
2022/10/22 13:05:37;;;;;;;3.80;2.42;;;15.70;99.90;;;;;;4956991;29;20406;-71